createdAt,value
2023-05-22T00:00:08.522Z,100727.63
2023-05-22T00:02:43.208Z,100732.78
2023-05-22T00:05:11.440Z,100725.25
2023-05-22T00:07:38.929Z,100725.19
2023-05-22T00:10:06.364Z,100718.72
2023-05-22T00:12:33.030Z,100716.13
2023-05-22T00:15:00.205Z,100722.25
2023-05-22T00:17:26.947Z,100720.53
2023-05-22T00:19:55.227Z,100712.53
2023-05-22T00:22:22.008Z,100722.34
2023-05-22T00:24:48.712Z,100722.13
2023-05-22T00:27:15.342Z,100713.81
2023-05-22T00:29:41.989Z,100716.56
2023-05-22T00:32:08.611Z,100708.81
2023-05-22T00:34:35.430Z,100710.81
2023-05-22T00:37:02.066Z,100711.13
2023-05-22T00:39:28.798Z,100712.94
2023-05-22T00:41:55.414Z,100706.28
2023-05-22T00:44:23.112Z,100701.16
2023-05-22T00:46:49.817Z,100702.84
2023-05-22T00:49:16.540Z,100694.13
2023-05-22T00:51:43.153Z,100697.84
2023-05-22T00:54:10.526Z,100699.00
2023-05-22T00:56:37.157Z,100700.88
2023-05-22T00:59:04.335Z,100701.41
2023-05-22T01:01:33.816Z,100707.09
2023-05-22T01:04:02.086Z,100702.88
2023-05-22T01:06:32.230Z,100700.56
2023-05-22T01:08:59.030Z,100702.25
2023-05-22T01:11:28.431Z,100703.00
2023-05-22T01:14:10.932Z,100702.00
2023-05-22T01:16:41.932Z,100701.44
2023-05-22T01:19:41.150Z,100703.41
2023-05-22T01:22:26.630Z,100701.28
2023-05-22T01:25:04.170Z,100705.44
2023-05-22T01:27:49.129Z,100699.25
2023-05-22T01:30:34.681Z,100697.13
2023-05-22T01:33:02.941Z,100689.16
2023-05-22T01:35:32.577Z,100697.72
2023-05-22T01:38:00.249Z,100697.72
2023-05-22T01:40:27.289Z,100690.47
2023-05-22T01:42:54.097Z,100694.03
2023-05-22T01:45:21.474Z,100693.00
2023-05-22T01:47:48.744Z,100696.63
2023-05-22T01:50:17.640Z,100695.34
2023-05-22T01:53:03.198Z,100687.91
2023-05-22T01:55:46.270Z,100695.06
2023-05-22T01:58:30.043Z,100696.31
2023-05-22T02:01:00.967Z,100699.03
2023-05-22T02:03:30.169Z,100700.16
2023-05-22T02:05:58.552Z,100696.44
2023-05-22T02:08:25.984Z,100698.06
2023-05-22T02:10:55.157Z,100687.81
2023-05-22T02:13:23.258Z,100693.06
2023-05-22T02:15:49.929Z,100689.63
2023-05-22T02:18:16.868Z,100676.91
2023-05-22T02:20:45.794Z,100671.44
2023-05-22T02:23:12.872Z,100681.16
2023-05-22T02:25:39.757Z,100677.00
2023-05-22T02:28:06.498Z,100666.47
2023-05-22T02:30:33.289Z,100662.03
2023-05-22T02:33:00.417Z,100667.56
2023-05-22T02:35:27.139Z,100666.06
2023-05-22T02:37:56.153Z,100666.31
2023-05-22T02:40:23.436Z,100668.97
2023-05-22T02:42:50.330Z,100664.38
2023-05-22T02:45:17.802Z,100662.84
2023-05-22T02:47:45.889Z,100669.72
2023-05-22T02:50:13.109Z,100669.47
2023-05-22T02:52:40.859Z,100668.44
2023-05-22T02:55:08.755Z,100663.94
2023-05-22T02:57:35.545Z,100663.78
2023-05-22T03:00:02.332Z,100668.63
2023-05-22T03:02:30.218Z,100666.81
2023-05-22T03:04:59.182Z,100663.72
2023-05-22T03:07:26.983Z,100668.13
2023-05-22T03:09:54.759Z,100666.91
2023-05-22T03:12:23.602Z,100661.97
2023-05-22T03:14:50.284Z,100662.38
2023-05-22T03:17:16.957Z,100662.75
2023-05-22T03:19:43.594Z,100655.47
2023-05-22T03:22:10.514Z,100660.56
2023-05-22T03:24:42.100Z,100669.69
2023-05-22T03:27:08.917Z,100665.59
2023-05-22T03:29:41.659Z,100663.63
2023-05-22T03:32:08.566Z,100655.28
2023-05-22T03:34:36.100Z,100660.97
2023-05-22T03:37:06.693Z,100656.66
2023-05-22T03:39:33.382Z,100666.53
2023-05-22T03:42:10.097Z,100661.81
2023-05-22T03:44:36.777Z,100659.78
2023-05-22T03:47:03.459Z,100652.38
2023-05-22T03:49:31.222Z,100657.72
2023-05-22T03:51:57.885Z,100663.41
2023-05-22T03:54:24.564Z,100658.19
2023-05-22T03:56:51.277Z,100657.31
2023-05-22T03:59:19.892Z,100663.41
2023-05-22T04:01:46.753Z,100658.16
2023-05-22T04:04:13.576Z,100668.41
2023-05-22T04:06:43.508Z,100657.28
2023-05-22T04:09:12.991Z,100666.00
2023-05-22T04:11:40.019Z,100653.34
2023-05-22T04:14:06.858Z,100654.84
2023-05-22T04:16:33.919Z,100653.13
2023-05-22T04:19:03.673Z,100653.34
2023-05-22T04:21:34.338Z,100658.13
2023-05-22T04:24:06.336Z,100655.06
2023-05-22T04:26:33.414Z,100650.44
2023-05-22T04:29:00.427Z,100656.84
2023-05-22T04:31:28.189Z,100648.19
2023-05-22T04:33:57.357Z,100660.19
2023-05-22T04:36:29.249Z,100657.00
2023-05-22T04:38:56.397Z,100655.06
2023-05-22T04:41:26.949Z,100659.16
2023-05-22T04:43:54.582Z,100657.59
2023-05-22T04:46:21.485Z,100660.72
2023-05-22T04:48:48.384Z,100655.47
2023-05-22T04:51:16.253Z,100659.50
2023-05-22T04:53:43.321Z,100666.91
2023-05-22T04:56:10.122Z,100666.06
2023-05-22T04:58:40.310Z,100669.91
2023-05-22T05:01:07.193Z,100669.03
2023-05-22T05:03:34.529Z,100667.56
2023-05-22T05:06:01.352Z,100668.72
2023-05-22T05:08:28.171Z,100670.91
2023-05-22T05:10:54.838Z,100662.88
2023-05-22T05:13:22.918Z,100665.13
2023-05-22T05:15:49.868Z,100669.09
2023-05-22T05:18:17.359Z,100669.16
2023-05-22T05:20:44.053Z,100663.41
2023-05-22T05:23:10.929Z,100664.97
2023-05-22T05:25:40.825Z,100661.91
2023-05-22T05:28:11.369Z,100654.66
2023-05-22T05:30:40.830Z,100661.47
2023-05-22T05:33:28.768Z,100660.63
2023-05-22T05:36:16.470Z,100661.53
2023-05-22T05:38:45.219Z,100665.69
2023-05-22T05:41:13.067Z,100667.38
2023-05-22T05:43:42.083Z,100656.41
2023-05-22T05:46:09.752Z,100659.19
2023-05-22T05:48:36.587Z,100663.06
2023-05-22T05:51:03.481Z,100664.31
2023-05-22T05:53:36.381Z,100668.97
2023-05-22T05:56:03.819Z,100666.38
2023-05-22T05:58:31.704Z,100664.50
2023-05-22T06:01:19.493Z,100660.72
2023-05-22T06:03:47.255Z,100667.53
2023-05-22T06:06:20.201Z,100659.78
2023-05-22T06:09:18.707Z,100661.38
2023-05-22T06:12:21.961Z,100661.81
2023-05-22T06:14:48.897Z,100651.84
2023-05-22T06:17:15.896Z,100656.75
2023-05-22T06:19:51.186Z,100652.22
2023-05-22T06:22:18.038Z,100653.13
2023-05-22T06:24:48.368Z,100643.47
2023-05-22T06:27:20.838Z,100651.41
2023-05-22T06:29:47.728Z,100643.34
2023-05-22T06:32:18.642Z,100650.09
2023-05-22T06:34:47.294Z,100641.47
2023-05-22T06:37:16.157Z,100650.34
2023-05-22T06:39:44.655Z,100648.25
2023-05-22T06:42:32.506Z,100646.28
2023-05-22T06:45:20.052Z,100654.06
2023-05-22T06:48:04.085Z,100644.22
2023-05-22T06:50:34.629Z,100641.19
2023-05-22T06:53:02.286Z,100648.09
2023-05-22T06:55:29.877Z,100644.34
2023-05-22T06:58:07.724Z,100648.19
2023-05-22T07:00:36.121Z,100637.00
2023-05-22T07:03:08.402Z,100646.78
2023-05-22T07:06:08.815Z,100655.78
2023-05-22T07:08:35.887Z,100648.00
2023-05-22T07:11:06.809Z,100645.72
2023-05-22T07:13:33.556Z,100653.63
2023-05-22T07:16:00.957Z,100650.91
2023-05-22T07:18:27.735Z,100646.22
2023-05-22T07:20:54.464Z,100651.59
2023-05-22T07:23:24.426Z,100652.13
2023-05-22T07:25:53.283Z,100651.59
2023-05-22T07:28:22.773Z,100645.44
2023-05-22T07:31:02.721Z,100650.38
2023-05-22T07:33:30.267Z,100644.34
2023-05-22T07:35:57.423Z,100646.44
2023-05-22T07:38:24.979Z,100640.88
2023-05-22T07:40:59.249Z,100638.50
2023-05-22T07:43:27.453Z,100637.47
2023-05-22T07:45:56.522Z,100632.22
2023-05-22T07:48:26.345Z,100640.31
2023-05-22T07:50:54.688Z,100629.22
2023-05-22T07:53:21.776Z,100639.44
2023-05-22T07:55:51.048Z,100626.47
2023-05-22T07:58:18.097Z,100629.22
2023-05-22T08:00:46.511Z,100634.50
2023-05-22T08:03:13.722Z,100635.78
2023-05-22T08:05:40.964Z,100640.00
2023-05-22T08:08:07.865Z,100635.50
2023-05-22T08:10:52.124Z,100635.59
2023-05-22T08:13:22.793Z,100635.41
2023-05-22T08:16:00.225Z,100636.78
2023-05-22T08:18:29.287Z,100635.50
2023-05-22T08:20:56.490Z,100624.47
2023-05-22T08:23:24.306Z,100628.72
2023-05-22T08:25:50.882Z,100623.63
2023-05-22T08:28:17.587Z,100626.22
2023-05-22T08:30:44.408Z,100623.22
2023-05-22T08:33:12.208Z,100630.16
2023-05-22T08:35:42.121Z,100624.78
2023-05-22T08:38:08.748Z,100619.69
2023-05-22T08:40:37.952Z,100620.00
2023-05-22T08:43:06.270Z,100614.16
2023-05-22T08:45:36.100Z,100618.00
2023-05-22T08:48:05.069Z,100614.00
2023-05-22T08:50:32.216Z,100615.81
2023-05-22T08:53:01.707Z,100606.63
2023-05-22T08:55:28.481Z,100609.16
2023-05-22T08:57:58.560Z,100611.16
2023-05-22T09:00:25.300Z,100598.63
2023-05-22T09:02:52.613Z,100590.69
2023-05-22T09:05:19.635Z,100596.31
2023-05-22T09:07:46.229Z,100590.59
2023-05-22T09:10:14.390Z,100576.94
2023-05-22T09:12:59.854Z,100592.38
2023-05-22T09:15:29.054Z,100582.28
2023-05-22T09:17:56.723Z,100582.97
2023-05-22T09:20:23.675Z,100582.53
2023-05-22T09:22:50.332Z,100584.47
2023-05-22T09:25:21.292Z,100587.66
2023-05-22T09:27:49.232Z,100576.13
2023-05-22T09:30:16.977Z,100583.03
2023-05-22T09:32:43.825Z,100574.59
2023-05-22T09:35:10.532Z,100587.13
2023-05-22T09:37:37.320Z,100584.31
2023-05-22T09:40:14.292Z,100575.81
2023-05-22T09:42:43.812Z,100569.22
2023-05-22T09:45:10.614Z,100571.78
2023-05-22T09:47:37.395Z,100571.03
2023-05-22T09:50:07.234Z,100568.09
2023-05-22T09:52:35.901Z,100562.88
2023-05-22T09:55:04.786Z,100564.03
2023-05-22T09:57:35.623Z,100564.06
2023-05-22T10:00:04.693Z,100555.53
2023-05-22T10:02:38.955Z,100554.91
2023-05-22T10:05:09.517Z,100549.25
2023-05-22T10:07:39.551Z,100555.28
2023-05-22T10:10:11.474Z,100545.63
2023-05-22T10:12:50.560Z,100548.53
2023-05-22T10:15:17.825Z,100552.41
2023-05-22T10:17:44.574Z,100550.44
2023-05-22T10:20:12.270Z,100533.88
2023-05-22T10:22:39.023Z,100538.38
2023-05-22T10:25:07.421Z,100532.09
2023-05-22T10:27:37.188Z,100536.97
2023-05-22T10:30:16.270Z,100529.19
2023-05-22T10:33:21.542Z,100522.09
2023-05-22T10:36:07.138Z,100522.59
2023-05-22T10:38:42.828Z,100525.81
2023-05-22T10:41:10.235Z,100511.94
2023-05-22T10:43:43.489Z,100520.72
2023-05-22T10:46:12.170Z,100511.38
2023-05-22T10:48:43.848Z,100513.25
2023-05-22T10:51:12.776Z,100513.75
2023-05-22T10:53:41.023Z,100514.69
2023-05-22T10:56:10.900Z,100504.94
2023-05-22T10:58:37.640Z,100503.44
2023-05-22T11:01:10.655Z,100496.88
2023-05-22T11:03:57.677Z,100498.16
2023-05-22T11:06:30.237Z,100504.78
2023-05-22T11:08:59.993Z,100498.63
2023-05-22T11:11:27.575Z,100493.13
2023-05-22T11:14:03.150Z,100496.47
2023-05-22T11:16:33.731Z,100494.44
2023-05-22T11:19:21.120Z,100491.53
2023-05-22T11:21:49.114Z,100488.66
2023-05-22T11:24:17.602Z,100482.91
2023-05-22T11:26:44.686Z,100482.81
2023-05-22T11:29:11.583Z,100478.03
2023-05-22T11:31:38.880Z,100482.34
2023-05-22T11:34:05.640Z,100476.63
2023-05-22T11:36:32.500Z,100470.88
2023-05-22T11:39:00.082Z,100470.88
2023-05-22T11:41:33.954Z,100471.13
2023-05-22T11:44:01.577Z,100469.44
2023-05-22T11:46:32.775Z,100460.97
2023-05-22T11:48:59.528Z,100471.09
2023-05-22T11:51:27.337Z,100467.78
2023-05-22T11:53:54.098Z,100461.00
2023-05-22T11:56:23.709Z,100458.91
2023-05-22T11:58:50.728Z,100456.25
2023-05-22T12:01:17.346Z,100454.03
2023-05-22T12:03:44.214Z,100449.97
2023-05-22T12:06:11.079Z,100440.03
2023-05-22T12:08:37.868Z,100443.19
2023-05-22T12:11:05.126Z,100440.16
2023-05-22T12:13:32.076Z,100445.75
2023-05-22T12:16:02.092Z,100449.22
2023-05-22T12:18:38.544Z,100433.16
2023-05-22T12:21:06.158Z,100437.41
2023-05-22T12:23:32.754Z,100442.56
2023-05-22T12:26:00.549Z,100442.38
2023-05-22T12:28:27.635Z,100434.81
2023-05-22T12:30:55.156Z,100437.34
2023-05-22T12:33:31.234Z,100433.44
2023-05-22T12:35:58.808Z,100425.88
2023-05-22T12:38:33.506Z,100427.59
2023-05-22T12:41:01.837Z,100428.13
2023-05-22T12:43:33.796Z,100425.59
2023-05-22T12:46:02.476Z,100426.03
2023-05-22T12:48:30.050Z,100420.25
2023-05-22T12:50:56.719Z,100423.44
2023-05-22T12:53:23.419Z,100419.59
2023-05-22T12:55:50.156Z,100419.13
2023-05-22T12:58:16.955Z,100421.00
2023-05-22T13:00:43.551Z,100415.75
2023-05-22T13:03:12.107Z,100407.03
2023-05-22T13:05:38.934Z,100415.91
2023-05-22T13:08:06.038Z,100407.09
2023-05-22T13:10:32.698Z,100407.06
2023-05-22T13:12:59.383Z,100404.13
2023-05-22T13:15:29.377Z,100406.84
2023-05-22T13:17:56.976Z,100404.75
2023-05-22T13:20:23.779Z,100410.09
2023-05-22T13:22:50.730Z,100403.03
2023-05-22T13:25:19.083Z,100407.31
2023-05-22T13:27:46.832Z,100400.34
2023-05-22T13:30:13.578Z,100401.88
2023-05-22T13:32:40.491Z,100403.13
2023-05-22T13:35:07.303Z,100396.38
2023-05-22T13:37:34.039Z,100401.47
2023-05-22T13:40:00.676Z,100391.28
2023-05-22T13:42:27.427Z,100392.97
2023-05-22T13:44:54.073Z,100387.78
2023-05-22T13:47:23.405Z,100387.38
2023-05-22T13:49:52.361Z,100390.97
2023-05-22T13:52:18.969Z,100375.84
2023-05-22T13:54:45.754Z,100379.59
2023-05-22T13:57:12.580Z,100383.34
2023-05-22T13:59:39.371Z,100378.84
2023-05-22T14:02:06.117Z,100377.00
2023-05-22T14:04:32.901Z,100374.81
2023-05-22T14:06:59.593Z,100376.69
2023-05-22T14:09:26.446Z,100367.66
2023-05-22T14:11:53.034Z,100365.94
2023-05-22T14:14:23.834Z,100363.19
2023-05-22T14:16:54.204Z,100355.84
2023-05-22T14:19:21.151Z,100358.16
2023-05-22T14:21:51.769Z,100357.72
2023-05-22T14:24:18.600Z,100359.47
2023-05-22T14:26:45.346Z,100351.72
2023-05-22T14:29:12.561Z,100346.63
2023-05-22T14:31:51.473Z,100343.34
2023-05-22T14:34:18.764Z,100337.25
2023-05-22T14:36:45.380Z,100333.28
2023-05-22T14:39:12.065Z,100332.38
2023-05-22T14:41:38.678Z,100325.34
2023-05-22T14:44:05.374Z,100317.34
2023-05-22T14:46:32.081Z,100323.25
2023-05-22T14:48:58.788Z,100317.44
2023-05-22T14:51:25.487Z,100313.38
2023-05-22T14:53:52.156Z,100308.00
2023-05-22T14:56:18.782Z,100304.72
2023-05-22T14:58:45.429Z,100304.72
2023-05-22T15:01:12.106Z,100302.56
2023-05-22T15:03:39.008Z,100295.00
2023-05-22T15:06:06.084Z,100298.34
2023-05-22T15:08:32.775Z,100285.72
2023-05-22T15:10:59.395Z,100292.00
2023-05-22T15:13:26.091Z,100290.25
2023-05-22T15:15:52.875Z,100286.88
2023-05-22T15:18:22.173Z,100283.00
2023-05-22T15:20:49.201Z,100280.38
2023-05-22T15:23:16.463Z,100282.06
2023-05-22T15:25:43.593Z,100282.44
2023-05-22T15:28:10.322Z,100268.09
2023-05-22T15:30:38.929Z,100268.16
2023-05-22T15:33:05.609Z,100274.66
2023-05-22T15:35:32.380Z,100272.09
2023-05-22T15:37:59.197Z,100260.25
2023-05-22T15:40:26.052Z,100260.09
2023-05-22T15:42:53.203Z,100265.84
2023-05-22T15:45:20.693Z,100265.38
2023-05-22T15:47:47.587Z,100261.16
2023-05-22T15:50:14.316Z,100260.91
2023-05-22T15:52:41.183Z,100249.16
2023-05-22T15:55:07.993Z,100249.41
2023-05-22T15:57:34.713Z,100257.03
2023-05-22T16:00:01.477Z,100251.63
2023-05-22T16:02:31.137Z,100256.38
2023-05-22T16:04:57.989Z,100261.44
2023-05-22T16:07:24.600Z,100261.31
2023-05-22T16:09:51.276Z,100267.09
2023-05-22T16:12:18.253Z,100271.56
2023-05-22T16:14:47.334Z,100271.03
2023-05-22T16:17:13.937Z,100271.56
2023-05-22T16:19:40.689Z,100274.56
2023-05-22T16:22:07.372Z,100269.28
2023-05-22T16:24:34.035Z,100268.34
2023-05-22T16:27:00.776Z,100275.78
2023-05-22T16:29:27.405Z,100277.25
2023-05-22T16:31:54.090Z,100272.50
2023-05-22T16:34:20.782Z,100276.38
2023-05-22T16:36:47.703Z,100271.97
2023-05-22T16:39:15.580Z,100276.38
2023-05-22T16:41:42.224Z,100271.34
2023-05-22T16:44:08.896Z,100271.97
2023-05-22T16:46:35.645Z,100270.41
2023-05-22T16:49:02.322Z,100273.78
2023-05-22T16:51:28.956Z,100272.81
2023-05-22T16:53:55.635Z,100274.16
2023-05-22T16:56:24.804Z,100275.22
2023-05-22T16:58:51.569Z,100277.56
2023-05-22T17:01:18.761Z,100271.13
2023-05-22T17:03:45.611Z,100265.63
2023-05-22T17:06:12.271Z,100267.47
2023-05-22T17:08:38.883Z,100265.50
2023-05-22T17:11:05.609Z,100264.53
2023-05-22T17:13:32.367Z,100261.03
2023-05-22T17:15:58.974Z,100267.41
2023-05-22T17:18:26.000Z,100264.88
2023-05-22T17:20:54.096Z,100263.88
2023-05-22T17:23:20.936Z,100256.06
2023-05-22T17:25:47.890Z,100252.72
2023-05-22T17:28:14.744Z,100252.34
2023-05-22T17:30:42.484Z,100246.28
2023-05-22T17:33:09.557Z,100237.50
2023-05-22T17:35:38.450Z,100235.81
2023-05-22T17:38:05.235Z,100238.47
2023-05-22T17:40:43.908Z,100233.94
2023-05-22T17:43:11.844Z,100228.91
2023-05-22T17:45:38.491Z,100236.53
2023-05-22T17:48:06.314Z,100232.31
2023-05-22T17:50:33.096Z,100241.63
2023-05-22T17:52:59.848Z,100238.59
2023-05-22T17:55:28.762Z,100234.16
2023-05-22T17:57:56.137Z,100230.13
2023-05-22T18:00:22.795Z,100240.59
2023-05-22T18:02:49.569Z,100240.25
2023-05-22T18:05:16.420Z,100237.56
2023-05-22T18:07:43.609Z,100237.38
2023-05-22T18:10:10.340Z,100234.16
2023-05-22T18:12:38.276Z,100235.69
2023-05-22T18:15:05.589Z,100229.75
2023-05-22T18:17:32.630Z,100224.34
2023-05-22T18:19:59.421Z,100224.34
2023-05-22T18:22:26.061Z,100224.84
2023-05-22T18:24:52.688Z,100234.19
2023-05-22T18:27:19.375Z,100229.81
2023-05-22T18:29:48.596Z,100230.72
2023-05-22T18:32:15.213Z,100225.81
2023-05-22T18:34:42.042Z,100221.03
2023-05-22T18:37:11.940Z,100223.13
2023-05-22T18:39:38.621Z,100213.59
2023-05-22T18:42:05.592Z,100219.25
2023-05-22T18:44:32.432Z,100222.75
2023-05-22T18:46:59.144Z,100217.94
2023-05-22T18:49:26.075Z,100224.28
2023-05-22T18:51:52.724Z,100220.91
2023-05-22T18:54:19.366Z,100219.56
2023-05-22T18:56:46.047Z,100237.66
2023-05-22T18:59:12.690Z,100233.41
2023-05-22T19:01:39.535Z,100239.75
2023-05-22T19:04:07.111Z,100246.56
2023-05-22T19:06:34.218Z,100251.56
2023-05-22T19:09:00.852Z,100248.69
2023-05-22T19:11:27.676Z,100264.25
2023-05-22T19:13:54.589Z,100272.81
2023-05-22T19:16:21.223Z,100285.34
2023-05-22T19:18:48.126Z,100328.78
2023-05-22T19:21:14.725Z,100354.13
2023-05-22T19:23:41.400Z,100357.44
2023-05-22T19:26:08.151Z,100364.44
2023-05-22T19:28:34.764Z,100368.44
2023-05-22T19:31:03.556Z,100376.63
2023-05-22T19:33:31.766Z,100376.25
2023-05-22T19:35:58.829Z,100404.31
2023-05-22T19:38:25.968Z,100396.34
2023-05-22T19:40:52.726Z,100398.97
2023-05-22T19:43:19.618Z,100393.56
2023-05-22T19:45:46.531Z,100402.28
2023-05-22T19:48:13.500Z,100414.13
2023-05-22T19:50:41.182Z,100414.81
2023-05-22T19:53:08.135Z,100417.56
2023-05-22T19:55:35.296Z,100422.44
2023-05-22T19:58:04.334Z,100440.72
2023-05-22T20:00:31.901Z,100452.69
2023-05-22T20:02:58.569Z,100463.41
2023-05-22T20:05:27.817Z,100463.31
2023-05-22T20:07:57.093Z,100452.47
2023-05-22T20:10:26.801Z,100456.97
2023-05-22T20:12:54.196Z,100473.91
2023-05-22T20:15:28.743Z,100475.84
2023-05-22T20:17:55.641Z,100489.44
2023-05-22T20:20:24.635Z,100484.97
2023-05-22T20:22:52.818Z,100488.44
2023-05-22T20:25:21.267Z,100483.78
2023-05-22T20:27:50.218Z,100498.06
2023-05-22T20:30:16.787Z,100515.50
2023-05-22T20:32:45.772Z,100504.59
2023-05-22T20:35:13.236Z,100513.47
2023-05-22T20:37:41.690Z,100509.97
2023-05-22T20:40:09.600Z,100510.50
2023-05-22T20:42:37.266Z,100498.59
2023-05-22T20:45:07.555Z,100493.78
2023-05-22T20:47:35.996Z,100493.97
2023-05-22T20:50:02.767Z,100485.03
2023-05-22T20:52:33.739Z,100491.09
2023-05-22T20:55:00.617Z,100509.03
2023-05-22T20:57:27.284Z,100506.38
2023-05-22T20:59:54.174Z,100515.06
2023-05-22T21:02:21.289Z,100518.25
2023-05-22T21:04:47.891Z,100527.63
2023-05-22T21:07:14.475Z,100520.44
2023-05-22T21:09:44.261Z,100522.13
2023-05-22T21:12:11.003Z,100538.41
2023-05-22T21:14:39.903Z,100530.75
2023-05-22T21:17:06.964Z,100524.06
2023-05-22T21:19:33.769Z,100528.09
2023-05-22T21:22:00.595Z,100524.25
2023-05-22T21:24:31.591Z,100515.06
2023-05-22T21:27:01.204Z,100518.81
2023-05-22T21:29:27.902Z,100513.84
2023-05-22T21:31:54.538Z,100508.50
2023-05-22T21:34:23.379Z,100509.72
2023-05-22T21:36:50.482Z,100506.56
2023-05-22T21:39:17.179Z,100499.25
2023-05-22T21:41:43.982Z,100492.44
2023-05-22T21:44:10.652Z,100487.66
2023-05-22T21:46:37.476Z,100492.13
2023-05-22T21:49:06.273Z,100484.97
2023-05-22T21:51:33.067Z,100492.06
2023-05-22T21:53:59.844Z,100481.59
2023-05-22T21:56:27.109Z,100486.88
2023-05-22T21:58:53.745Z,100479.69
2023-05-22T22:01:20.546Z,100481.63
2023-05-22T22:03:47.280Z,100485.25
2023-05-22T22:06:14.012Z,100489.38
2023-05-22T22:08:40.774Z,100485.38
2023-05-22T22:11:07.379Z,100490.47
2023-05-22T22:13:33.980Z,100483.41
2023-05-22T22:16:00.658Z,100482.19
2023-05-22T22:18:34.622Z,100480.00
2023-05-22T22:21:02.424Z,100479.47
2023-05-22T22:23:29.626Z,100477.72
2023-05-22T22:25:56.317Z,100475.13
2023-05-22T22:28:22.996Z,100486.78
2023-05-22T22:30:49.694Z,100489.00
2023-05-22T22:33:16.352Z,100479.25
2023-05-22T22:35:43.163Z,100475.78
2023-05-22T22:38:09.869Z,100479.19
2023-05-22T22:40:39.055Z,100464.03
2023-05-22T22:43:08.364Z,100461.41
2023-05-22T22:45:39.942Z,100457.25
2023-05-22T22:48:07.044Z,100452.25
2023-05-22T22:50:33.776Z,100446.63
2023-05-22T22:53:00.666Z,100435.72
2023-05-22T22:55:32.823Z,100435.84
2023-05-22T22:58:01.932Z,100427.28
2023-05-22T23:00:28.535Z,100425.63
2023-05-22T23:02:55.404Z,100419.66
2023-05-22T23:05:22.136Z,100410.47
2023-05-22T23:07:48.893Z,100415.63
2023-05-22T23:10:15.808Z,100400.00
2023-05-22T23:12:42.884Z,100404.31
2023-05-22T23:15:18.494Z,100398.47
2023-05-22T23:17:50.244Z,100387.06
2023-05-22T23:20:18.433Z,100388.19
2023-05-22T23:22:45.021Z,100392.31
2023-05-22T23:25:11.680Z,100391.78
2023-05-22T23:27:38.259Z,100387.31
2023-05-22T23:30:06.278Z,100381.22
2023-05-22T23:32:32.963Z,100371.88
2023-05-22T23:34:59.633Z,100374.31
2023-05-22T23:37:27.346Z,100372.81
2023-05-22T23:39:56.115Z,100365.09
2023-05-22T23:42:22.973Z,100366.75
2023-05-22T23:44:52.121Z,100364.22
2023-05-22T23:47:19.096Z,100360.88
2023-05-22T23:49:45.800Z,100350.69
2023-05-22T23:52:13.126Z,100346.44
2023-05-22T23:54:39.909Z,100346.41
2023-05-22T23:57:10.546Z,100334.53
2023-05-22T23:59:37.343Z,100336.00
